Temple City, CA (91780)

9:54 AM PST on January 31, 2015 (GMT -0800)
Rosemead Gardens | Change Station
CLOSE
Current Station
Personal Weather Station
Location: Rosemead, CA
Elevation: 341 ft
Nearby Weather Stations

Elev 341 ft 34.09 °N, 118.07 °W | Updated 7 minutes ago

Mostly Cloudy
Mostly Cloudy
64.0 °F
Feels Like 64.0 °F
N
2.0
Wind Variable Wind from East
Gusts 2.0 mph

Today
High -- | Low -- °F
--% Chance of Precip.
Yesterday
High -- | Low -- °F
Precip. -- in
6:50 AM 5:21 PM
Waxing Gibbous, 90% visible
Pressure 29.91 in
Visibility 8.0 miles
Clouds Mostly Cloudy 1600 ft
Overcast 2500 ft
Dew Point 56 °F
Humidity 76%
Rainfall 0.00 in
Snow Depth Not available.
UV 1 out of 12
Pollen 6.90 out of 12
Air Quality Not available.
Flu Activity Not available.
METAR KCQT 311747Z AUTO 31003KT 8SM BKN016 OVC025 18/12 A2992 RMK AO2 SLP128 T01780122 10183 20139 51016

More Conditions Fewer Conditions

Pressure 29.91 in
Visibility 8.0 miles
Clouds Mostly Cloudy 1600 ft
Overcast 2500 ft
Dew Point 56 °F
Humidity 76%
Rainfall 0.00 in
Snow Depth Not available.
UV 1 out of 12
Pollen 6.90 out of 12
Air Quality Not available.
Flu Activity Not available.
METAR KCQT 311747Z AUTO 31003KT 8SM BKN016 OVC025 18/12 A2992 RMK AO2 SLP128 T01780122 10183 20139 51016

More Conditions Fewer Conditions

10-Day Weather Forecast

Almanac

Astronomy

Jan. 31, 2015 Rise Set
Actual Time
Civil Twilight
Nautical Twilight
Astronomical Twilight
Moon
Length of Visible Light
Length of Day
Tomorrow will be .
, % of the Moon is Illuminated

Today's Extremes

State Highs State Lows

Community

WunderPhotos

Upload Photos

1,792,136 photos uploaded!

WunderBlogs® & News

Nearby

Air Quality

  Air Quality AQ Index Pollutant
Not available.

Snow Depth

Station Depth Elevation

Earthquake Activity

City Distance Mag. Time & Date
Minimum magnitude displayed is 2.5.

Coastal Water Temperatures

Place Temperature

Nearby Weather Stations